createdAt,value
2019-02-24T00:02:08.702Z,10.20
2019-02-24T00:04:35.614Z,10.27
2019-02-24T00:07:02.570Z,11.40
2019-02-24T00:09:29.495Z,9.73
2019-02-24T00:11:56.458Z,10.07
2019-02-24T00:14:23.354Z,10.27
2019-02-24T00:16:50.299Z,10.63
2019-02-24T00:19:17.209Z,10.20
2019-02-24T00:21:44.163Z,10.83
2019-02-24T00:24:11.067Z,9.97
2019-02-24T00:26:38.053Z,10.40
2019-02-24T00:29:04.963Z,9.87
2019-02-24T00:31:32.178Z,11.00
2019-02-24T00:33:59.127Z,10.60
2019-02-24T00:36:26.035Z,10.40
2019-02-24T00:38:52.971Z,10.90
2019-02-24T00:41:19.922Z,10.30
2019-02-24T00:43:46.887Z,11.87
2019-02-24T00:46:13.812Z,11.20
2019-02-24T00:48:40.779Z,11.57
2019-02-24T00:51:07.672Z,10.83
2019-02-24T00:53:34.642Z,10.20
2019-02-24T00:56:01.546Z,10.60
2019-02-24T00:58:28.511Z,11.03
2019-02-24T01:00:55.440Z,10.60
2019-02-24T01:03:22.376Z,10.47
2019-02-24T01:05:49.282Z,10.23
2019-02-24T01:08:16.264Z,11.37
2019-02-24T01:10:43.173Z,10.10
2019-02-24T01:13:10.108Z,11.73
2019-02-24T01:15:36.994Z,12.27
2019-02-24T01:18:03.923Z,12.03
2019-02-24T01:20:30.820Z,10.83
2019-02-24T01:22:57.753Z,10.50
2019-02-24T01:25:24.642Z,9.57
2019-02-24T01:27:51.605Z,11.80
2019-02-24T01:30:18.531Z,10.77
2019-02-24T01:32:45.469Z,10.20
2019-02-24T01:35:12.396Z,11.17
2019-02-24T01:37:39.324Z,11.20
2019-02-24T01:40:06.619Z,10.43
2019-02-24T01:42:33.658Z,12.80
2019-02-24T01:45:00.605Z,11.97
2019-02-24T01:47:27.503Z,11.87
2019-02-24T01:49:54.423Z,10.73
2019-02-24T01:52:21.303Z,13.37
2019-02-24T01:54:48.215Z,11.40
2019-02-24T01:57:15.200Z,11.57
2019-02-24T01:59:42.159Z,12.47
2019-02-24T02:02:09.081Z,11.90
2019-02-24T02:04:36.005Z,13.10
2019-02-24T02:07:02.913Z,12.63
2019-02-24T02:09:29.832Z,13.70
2019-02-24T02:11:56.732Z,11.70
2019-02-24T02:14:23.638Z,10.57
2019-02-24T02:16:50.548Z,11.93
2019-02-24T02:19:17.472Z,12.70
2019-02-24T02:21:44.346Z,11.97
2019-02-24T02:24:11.273Z,11.17
2019-02-24T02:26:38.230Z,12.13
2019-02-24T02:29:05.279Z,11.77
2019-02-24T02:31:32.170Z,11.90
2019-02-24T02:33:59.138Z,11.43
2019-02-24T02:36:26.063Z,12.00
2019-02-24T02:38:52.933Z,12.07
2019-02-24T02:41:19.843Z,11.57
2019-02-24T02:43:46.754Z,11.40
2019-02-24T02:46:13.642Z,12.07
2019-02-24T02:48:40.621Z,11.17
2019-02-24T02:51:08.286Z,11.43
2019-02-24T02:53:35.230Z,10.30
2019-02-24T02:56:02.159Z,11.60
2019-02-24T02:58:29.038Z,10.43
2019-02-24T03:00:55.979Z,12.43
2019-02-24T03:03:22.928Z,13.30
2019-02-24T03:06:06.824Z,11.07
2019-02-24T03:08:50.358Z,10.73
2019-02-24T03:11:17.278Z,12.10
2019-02-24T03:13:44.215Z,11.27
2019-02-24T03:16:11.348Z,12.00
2019-02-24T03:18:38.266Z,11.53
2019-02-24T03:21:05.208Z,11.67
2019-02-24T03:23:32.607Z,11.37
2019-02-24T03:25:59.597Z,11.43
2019-02-24T03:28:26.543Z,11.70
2019-02-24T03:30:53.469Z,11.00
2019-02-24T03:33:20.369Z,10.30
2019-02-24T03:35:47.294Z,11.20
2019-02-24T03:38:14.177Z,8.90
2019-02-24T03:40:41.172Z,10.50
2019-02-24T03:43:08.237Z,9.77
2019-02-24T03:45:35.170Z,9.90
2019-02-24T03:48:02.104Z,10.80
2019-02-24T03:50:29.000Z,10.90
2019-02-24T03:52:55.883Z,11.10
2019-02-24T03:55:22.999Z,9.97
2019-02-24T03:57:49.914Z,9.17
2019-02-24T04:00:16.811Z,10.43
2019-02-24T04:02:43.752Z,9.87
2019-02-24T04:05:10.632Z,9.87
2019-02-24T04:07:37.567Z,9.70
2019-02-24T04:10:04.812Z,9.60
2019-02-24T04:12:31.752Z,10.60
2019-02-24T04:14:58.626Z,10.63
2019-02-24T04:17:25.539Z,10.53
2019-02-24T04:19:52.418Z,9.23
2019-02-24T04:22:19.326Z,9.67
2019-02-24T04:24:46.206Z,10.87
2019-02-24T04:27:13.171Z,10.40
2019-02-24T04:29:40.076Z,10.17
2019-02-24T04:32:07.346Z,10.10
2019-02-24T04:34:34.270Z,10.40
2019-02-24T04:37:01.210Z,9.30
2019-02-24T04:39:28.085Z,11.03
2019-02-24T04:41:55.059Z,9.33
2019-02-24T04:44:21.948Z,10.77
2019-02-24T04:46:48.896Z,9.50
2019-02-24T04:49:16.176Z,9.77
2019-02-24T04:51:43.118Z,10.47
2019-02-24T04:54:10.025Z,11.23
2019-02-24T04:56:36.942Z,10.07
2019-02-24T04:59:03.818Z,9.80
2019-02-24T05:01:30.738Z,10.57
2019-02-24T05:03:57.629Z,11.40
2019-02-24T05:06:24.531Z,11.07
2019-02-24T05:08:51.469Z,10.80
2019-02-24T05:11:18.351Z,10.80
2019-02-24T05:13:45.311Z,11.93
2019-02-24T05:16:12.204Z,10.23
2019-02-24T05:18:39.111Z,10.87
2019-02-24T05:21:06.026Z,9.57
2019-02-24T05:23:33.325Z,10.43
2019-02-24T05:26:00.265Z,10.40
2019-02-24T05:28:27.226Z,9.90
2019-02-24T05:30:54.142Z,12.07
2019-02-24T05:33:21.073Z,10.63
2019-02-24T05:35:47.976Z,9.30
2019-02-24T05:38:14.885Z,9.60
2019-02-24T05:40:41.777Z,9.90
2019-02-24T05:43:08.706Z,9.10
2019-02-24T05:45:35.608Z,10.70
2019-02-24T05:48:02.532Z,10.27
2019-02-24T05:50:29.429Z,9.77
2019-02-24T05:52:56.340Z,10.43
2019-02-24T05:55:23.240Z,10.80
2019-02-24T05:57:50.166Z,10.17
2019-02-24T06:00:17.073Z,9.90
2019-02-24T06:02:44.033Z,11.77
2019-02-24T06:05:11.029Z,10.60
2019-02-24T06:07:38.122Z,9.90
2019-02-24T06:10:05.455Z,9.40
2019-02-24T06:12:32.475Z,11.20
2019-02-24T06:14:59.368Z,10.40
2019-02-24T06:17:26.329Z,9.80
2019-02-24T06:19:53.260Z,9.00
2019-02-24T06:22:20.170Z,10.50
2019-02-24T06:24:47.117Z,11.33
2019-02-24T06:27:14.050Z,10.40
2019-02-24T06:29:41.015Z,10.70
2019-02-24T06:32:07.901Z,9.80
2019-02-24T06:34:34.826Z,9.80
2019-02-24T06:37:01.719Z,10.47
2019-02-24T06:39:28.678Z,9.73
2019-02-24T06:41:55.728Z,11.03
2019-02-24T06:44:22.771Z,10.73
2019-02-24T06:46:49.832Z,11.27
2019-02-24T06:49:16.891Z,10.13
2019-02-24T06:51:43.802Z,11.00
2019-02-24T06:54:10.781Z,11.00
2019-02-24T06:56:37.916Z,10.43
2019-02-24T06:59:06.552Z,11.27
2019-02-24T07:01:33.431Z,9.93
2019-02-24T07:04:00.373Z,11.57
2019-02-24T07:06:27.272Z,12.80
2019-02-24T07:08:54.209Z,12.80
2019-02-24T07:11:21.130Z,14.10
2019-02-24T07:13:48.130Z,11.30
2019-02-24T07:16:15.038Z,13.33
2019-02-24T07:18:41.992Z,13.00
2019-02-24T07:21:09.110Z,13.47
2019-02-24T07:23:36.341Z,13.30
2019-02-24T07:26:03.356Z,13.40
2019-02-24T07:28:30.447Z,12.33
2019-02-24T07:30:57.374Z,10.60
2019-02-24T07:33:24.295Z,11.50
2019-02-24T07:35:51.192Z,11.90
2019-02-24T07:38:18.119Z,11.70
2019-02-24T07:40:44.998Z,10.50
2019-02-24T07:43:11.890Z,10.40
2019-02-24T07:45:38.912Z,12.13
2019-02-24T07:48:05.782Z,10.63
2019-02-24T07:50:32.697Z,12.57
2019-02-24T07:52:59.608Z,11.60
2019-02-24T07:55:26.535Z,11.17
2019-02-24T07:57:53.442Z,11.67
2019-02-24T08:00:20.488Z,10.70
2019-02-24T08:02:47.561Z,10.97
2019-02-24T08:05:14.660Z,11.90
2019-02-24T08:07:41.676Z,12.60
2019-02-24T08:10:08.622Z,11.67
2019-02-24T08:12:35.522Z,11.47
2019-02-24T08:15:02.772Z,11.40
2019-02-24T08:17:29.674Z,13.67
2019-02-24T08:19:56.620Z,12.70
2019-02-24T08:22:23.536Z,12.47
2019-02-24T08:24:50.489Z,11.63
2019-02-24T08:27:17.423Z,11.40
2019-02-24T08:29:44.342Z,11.27
2019-02-24T08:32:11.223Z,10.63
2019-02-24T08:34:38.162Z,11.20
2019-02-24T08:37:05.044Z,10.90
2019-02-24T08:39:31.955Z,10.20
2019-02-24T08:41:58.852Z,9.43
2019-02-24T08:44:25.786Z,9.33
2019-02-24T08:46:52.679Z,8.60
2019-02-24T08:49:19.633Z,9.00
2019-02-24T08:51:46.580Z,9.60
2019-02-24T08:54:13.467Z,11.10
2019-02-24T08:56:40.413Z,9.37
2019-02-24T08:59:07.293Z,9.43
2019-02-24T09:01:35.226Z,9.50
2019-02-24T09:04:02.158Z,8.50
2019-02-24T09:06:29.085Z,8.97
2019-02-24T09:08:56.091Z,9.80
2019-02-24T09:11:23.055Z,10.10
2019-02-24T09:13:50.767Z,9.27
2019-02-24T09:16:17.882Z,9.37
2019-02-24T09:18:44.807Z,9.60
2019-02-24T09:21:11.770Z,9.30
2019-02-24T09:23:38.677Z,9.90
2019-02-24T09:26:05.601Z,8.23
2019-02-24T09:28:32.766Z,9.57
2019-02-24T09:31:01.095Z,9.53
2019-02-24T09:33:28.309Z,9.20
2019-02-24T09:35:55.270Z,9.23
2019-02-24T09:38:22.198Z,9.80
2019-02-24T09:40:49.407Z,10.90
2019-02-24T09:43:16.507Z,9.33
2019-02-24T09:45:43.498Z,11.00
2019-02-24T09:48:10.491Z,10.90
2019-02-24T09:50:37.547Z,11.50
2019-02-24T09:53:04.479Z,10.77
2019-02-24T09:55:31.433Z,10.83
2019-02-24T09:57:58.593Z,10.30
2019-02-24T10:00:25.630Z,10.60
2019-02-24T10:02:52.555Z,11.30
2019-02-24T10:05:19.706Z,12.30
2019-02-24T10:07:46.648Z,11.87
2019-02-24T10:10:13.822Z,11.17
2019-02-24T10:12:40.777Z,11.20
2019-02-24T10:15:07.689Z,10.33
2019-02-24T10:17:34.636Z,11.70
2019-02-24T10:20:01.549Z,9.90
2019-02-24T10:22:28.487Z,10.23
2019-02-24T10:24:58.799Z,10.67
2019-02-24T10:27:25.751Z,11.30
2019-02-24T10:29:52.673Z,10.10
2019-02-24T10:32:19.622Z,10.30
2019-02-24T10:34:46.570Z,10.40
2019-02-24T10:37:13.510Z,9.73
2019-02-24T10:39:40.453Z,10.33
2019-02-24T10:42:07.433Z,9.60
2019-02-24T10:44:34.383Z,9.50
2019-02-24T10:47:02.335Z,9.00
2019-02-24T10:49:29.517Z,9.07
2019-02-24T10:51:56.477Z,7.87
2019-02-24T10:54:23.451Z,8.20
2019-02-24T10:56:50.405Z,6.87
2019-02-24T10:59:17.319Z,8.43
2019-02-24T11:01:44.362Z,7.73
2019-02-24T11:04:11.270Z,7.50
2019-02-24T11:06:38.215Z,7.03
2019-02-24T11:09:05.956Z,7.20
2019-02-24T11:11:32.873Z,8.13
2019-02-24T11:13:59.862Z,6.93
2019-02-24T11:16:26.764Z,7.93
2019-02-24T11:18:53.699Z,7.17
2019-02-24T11:21:20.718Z,6.80
2019-02-24T11:23:48.111Z,7.20
2019-02-24T11:26:15.014Z,8.07
2019-02-24T11:28:41.991Z,6.50
2019-02-24T11:31:09.290Z,7.60
2019-02-24T11:33:36.252Z,7.33
2019-02-24T11:36:03.192Z,9.73
2019-02-24T11:38:30.132Z,8.50
2019-02-24T11:40:57.202Z,9.03
2019-02-24T11:43:26.178Z,8.90
2019-02-24T11:45:53.085Z,11.30
2019-02-24T11:48:20.041Z,10.70
2019-02-24T11:50:46.954Z,9.30
2019-02-24T11:53:13.881Z,8.87
2019-02-24T11:55:40.765Z,9.73
2019-02-24T11:58:07.799Z,8.73
2019-02-24T12:00:34.682Z,7.67
2019-02-24T12:03:01.652Z,8.10
2019-02-24T12:05:28.720Z,6.73
2019-02-24T12:07:55.707Z,5.80
2019-02-24T12:10:22.623Z,5.97
2019-02-24T12:12:49.657Z,6.20
2019-02-24T12:15:16.568Z,5.73
2019-02-24T12:17:43.556Z,6.50
2019-02-24T12:20:10.554Z,7.20
2019-02-24T12:22:37.469Z,6.97
2019-02-24T12:25:04.768Z,7.63
2019-02-24T12:27:31.761Z,6.93
2019-02-24T12:29:58.717Z,7.37
2019-02-24T12:32:25.618Z,8.10
2019-02-24T12:34:52.553Z,8.07
2019-02-24T12:37:19.459Z,7.43
2019-02-24T12:39:46.431Z,6.93
2019-02-24T12:42:13.387Z,6.60
2019-02-24T12:44:40.371Z,6.80
2019-02-24T12:47:07.375Z,7.63
2019-02-24T12:49:34.354Z,6.53
2019-02-24T12:52:01.234Z,7.13
2019-02-24T12:54:28.281Z,7.30
2019-02-24T12:56:55.235Z,7.00
2019-02-24T12:59:22.220Z,7.60
2019-02-24T13:01:49.119Z,7.00
2019-02-24T13:04:16.119Z,6.90
2019-02-24T13:06:43.037Z,6.33
2019-02-24T13:09:09.995Z,6.23
2019-02-24T13:11:37.032Z,6.50
2019-02-24T13:14:03.989Z,6.30
2019-02-24T13:16:30.919Z,5.50
2019-02-24T13:18:57.975Z,4.70
2019-02-24T13:21:24.889Z,6.00
2019-02-24T13:23:52.860Z,5.43
2019-02-24T13:26:19.855Z,5.67
2019-02-24T13:28:50.486Z,6.10
2019-02-24T13:31:15.608Z,6.97
2019-02-24T13:33:42.578Z,5.07
2019-02-24T13:36:09.529Z,5.40
2019-02-24T13:38:36.433Z,5.97
2019-02-24T13:41:03.406Z,5.50
2019-02-24T13:43:30.317Z,4.60
2019-02-24T13:45:57.274Z,6.10
2019-02-24T13:48:24.800Z,5.67
2019-02-24T13:50:51.766Z,6.00
2019-02-24T13:53:18.687Z,5.20
2019-02-24T13:55:45.662Z,5.67
2019-02-24T13:58:12.590Z,5.40
2019-02-24T14:00:39.545Z,5.50
2019-02-24T14:03:06.481Z,6.00
2019-02-24T14:05:33.437Z,5.53
2019-02-24T14:08:00.385Z,5.97
2019-02-24T14:10:27.388Z,5.90
2019-02-24T14:12:54.366Z,6.17
2019-02-24T14:15:21.388Z,5.03
2019-02-24T14:17:48.784Z,5.20
2019-02-24T14:20:15.731Z,5.20
2019-02-24T14:22:42.635Z,5.50
2019-02-24T14:25:09.643Z,5.67
2019-02-24T14:27:36.565Z,6.00
2019-02-24T14:30:04.752Z,6.03
2019-02-24T14:32:33.124Z,6.40
2019-02-24T14:35:00.462Z,5.63
2019-02-24T14:37:27.456Z,5.30
2019-02-24T14:39:54.452Z,6.20
2019-02-24T14:42:21.392Z,6.00
2019-02-24T14:44:48.411Z,5.63
2019-02-24T14:47:15.356Z,5.10
2019-02-24T14:49:42.254Z,6.23
2019-02-24T14:52:09.649Z,6.43
2019-02-24T14:54:36.596Z,5.60
2019-02-24T14:57:03.653Z,5.00
2019-02-24T14:59:30.560Z,6.27
2019-02-24T15:01:57.497Z,4.97
2019-02-24T15:04:24.604Z,6.80
2019-02-24T15:06:51.568Z,6.27
2019-02-24T15:09:18.462Z,5.47
2019-02-24T15:11:45.411Z,5.87
2019-02-24T15:14:12.312Z,5.93
2019-02-24T15:16:39.825Z,6.37
2019-02-24T15:19:06.739Z,6.27
2019-02-24T15:21:33.693Z,7.60
2019-02-24T15:26:41.101Z,7.30
2019-02-24T15:29:08.031Z,6.80
2019-02-24T15:31:34.980Z,7.17
2019-02-24T15:34:01.876Z,6.67
2019-02-24T15:36:28.836Z,6.87
2019-02-24T15:38:55.763Z,5.90
2019-02-24T15:41:29.686Z,6.40
2019-02-24T15:43:52.614Z,6.33
2019-02-24T15:46:20.110Z,6.20
2019-02-24T15:48:47.028Z,5.60
2019-02-24T15:51:13.996Z,6.13
2019-02-24T15:53:41.025Z,5.67
2019-02-24T15:56:07.910Z,5.77
2019-02-24T15:58:35.260Z,5.70
2019-02-24T16:01:02.444Z,5.90
2019-02-24T16:03:29.417Z,4.53
2019-02-24T16:05:56.320Z,4.57
2019-02-24T16:08:23.241Z,3.93
2019-02-24T16:10:53.050Z,4.03
2019-02-24T16:13:20.239Z,4.20
2019-02-24T16:15:47.207Z,3.50
2019-02-24T16:18:14.255Z,3.23
2019-02-24T16:20:41.319Z,3.80
2019-02-24T16:23:08.253Z,3.80
2019-02-24T16:25:35.287Z,4.50
2019-02-24T16:28:02.391Z,3.90
2019-02-24T16:30:29.398Z,3.60
2019-02-24T16:32:56.365Z,4.03
2019-02-24T16:35:23.439Z,3.40
2019-02-24T16:37:50.461Z,3.50
2019-02-24T16:40:17.703Z,4.23
2019-02-24T16:42:44.649Z,3.57
2019-02-24T16:45:11.848Z,3.53
2019-02-24T16:47:39.033Z,3.73
2019-02-24T16:50:07.163Z,4.50
2019-02-24T16:52:34.226Z,4.53
2019-02-24T16:55:01.203Z,5.33
2019-02-24T16:57:28.273Z,4.93
2019-02-24T16:59:55.222Z,4.70
2019-02-24T17:02:23.037Z,5.40
2019-02-24T17:04:50.249Z,6.70
2019-02-24T17:07:17.216Z,6.40
2019-02-24T17:09:44.169Z,5.80
2019-02-24T17:12:11.135Z,5.73
2019-02-24T17:14:38.106Z,5.87
2019-02-24T17:17:08.461Z,6.47
2019-02-24T17:19:38.430Z,5.30
2019-02-24T17:22:05.743Z,5.90
2019-02-24T17:24:32.762Z,6.13
2019-02-24T17:26:59.750Z,6.77
2019-02-24T17:29:26.787Z,5.97
2019-02-24T17:31:53.764Z,5.37
2019-02-24T17:34:20.724Z,5.00
2019-02-24T17:36:47.677Z,4.77
2019-02-24T17:39:14.811Z,4.20
2019-02-24T17:41:41.796Z,4.57
2019-02-24T17:44:08.790Z,4.43
2019-02-24T17:46:35.790Z,4.10
2019-02-24T17:49:02.807Z,4.30
2019-02-24T17:51:29.725Z,4.30
2019-02-24T17:53:56.716Z,5.40
2019-02-24T17:56:23.613Z,4.90
2019-02-24T17:58:59.803Z,4.07
2019-02-24T18:01:28.269Z,4.30
2019-02-24T18:04:00.206Z,4.63
2019-02-24T18:06:33.767Z,5.13
2019-02-24T18:09:06.437Z,6.77
2019-02-24T18:11:35.875Z,5.30
2019-02-24T18:14:06.987Z,6.10
2019-02-24T18:16:38.202Z,7.67
2019-02-24T18:19:11.773Z,8.77
2019-02-24T18:21:40.626Z,7.80
2019-02-24T18:24:07.677Z,8.27
2019-02-24T18:26:34.587Z,7.30
2019-02-24T18:29:01.549Z,7.80
2019-02-24T18:31:28.462Z,7.40
2019-02-24T18:33:55.385Z,7.20
2019-02-24T18:36:22.300Z,7.70
2019-02-24T18:38:49.319Z,7.83
2019-02-24T18:41:16.273Z,9.07
2019-02-24T18:43:45.576Z,9.63
2019-02-24T18:46:12.532Z,10.17
2019-02-24T18:48:58.762Z,14.00
2019-02-24T18:51:42.450Z,13.87
2019-02-24T18:54:09.872Z,13.70
2019-02-24T18:56:36.789Z,14.77
2019-02-24T18:59:03.863Z,14.80
2019-02-24T19:01:30.780Z,14.43
2019-02-24T19:03:58.684Z,15.60
2019-02-24T19:06:25.591Z,16.53
2019-02-24T19:09:03.691Z,14.90
2019-02-24T19:11:34.010Z,17.90
2019-02-24T19:17:31.875Z,15.90
2019-02-24T19:24:24.294Z,16.00
2019-02-24T19:26:54.519Z,15.90
2019-02-24T19:29:22.704Z,16.73
2019-02-24T19:31:54.755Z,16.50
2019-02-24T19:34:21.700Z,14.60
2019-02-24T19:36:48.649Z,15.50
2019-02-24T19:39:15.885Z,15.80
2019-02-24T19:41:42.830Z,16.10
2019-02-24T19:44:10.312Z,15.90
2019-02-24T19:46:37.368Z,15.40
2019-02-24T19:49:04.296Z,14.63
2019-02-24T19:51:31.190Z,15.23
2019-02-24T19:53:58.126Z,15.57
2019-02-24T19:56:25.070Z,14.47
2019-02-24T19:58:51.992Z,15.50
2019-02-24T20:01:19.463Z,16.00
2019-02-24T20:03:46.443Z,16.43
2019-02-24T20:06:13.415Z,15.90
2019-02-24T20:08:40.318Z,15.60
2019-02-24T20:11:07.242Z,14.60
2019-02-24T20:13:34.186Z,14.30
2019-02-24T20:16:01.137Z,14.30
2019-02-24T20:18:28.333Z,14.80
2019-02-24T20:20:55.297Z,14.57
2019-02-24T20:23:22.211Z,14.33
2019-02-24T20:25:49.276Z,12.93
2019-02-24T20:28:16.253Z,14.83
2019-02-24T20:30:43.190Z,14.27
2019-02-24T20:33:11.966Z,15.93
2019-02-24T20:35:38.928Z,14.87
2019-02-24T20:38:06.100Z,16.50
2019-02-24T20:40:33.082Z,15.30
2019-02-24T20:43:00.047Z,15.77
2019-02-24T20:45:29.054Z,14.93
2019-02-24T20:47:55.929Z,14.20
2019-02-24T20:50:22.946Z,11.77
2019-02-24T20:52:49.869Z,11.67
2019-02-24T20:55:16.816Z,10.97
2019-02-24T20:57:43.714Z,13.20
2019-02-24T21:00:19.709Z,12.80
2019-02-24T21:02:46.624Z,12.13
2019-02-24T21:05:13.546Z,12.27
2019-02-24T21:07:40.490Z,11.37
2019-02-24T21:10:08.227Z,10.23
2019-02-24T21:12:35.160Z,9.70
2019-02-24T21:15:03.719Z,9.00
2019-02-24T21:17:30.698Z,10.07
2019-02-24T21:19:57.704Z,8.33
2019-02-24T21:22:24.781Z,8.50
2019-02-24T21:24:51.749Z,8.60
2019-02-24T21:27:18.733Z,9.17
2019-02-24T21:29:45.675Z,9.90
2019-02-24T21:32:12.601Z,9.40
2019-02-24T21:34:39.513Z,8.40
2019-02-24T21:37:06.462Z,9.00
2019-02-24T21:39:33.378Z,8.30
2019-02-24T21:42:00.412Z,8.90
2019-02-24T21:44:27.316Z,10.30
2019-02-24T21:46:54.242Z,10.70
2019-02-24T21:49:21.354Z,13.27
2019-02-24T21:51:48.286Z,13.10
2019-02-24T21:54:15.175Z,11.30
2019-02-24T21:56:42.106Z,12.60
2019-02-24T21:59:09.004Z,11.83
2019-02-24T22:01:35.935Z,11.53
2019-02-24T22:04:02.825Z,10.13
2019-02-24T22:06:29.761Z,11.07
2019-02-24T22:08:56.651Z,11.00
2019-02-24T22:11:23.668Z,10.50
2019-02-24T22:13:50.558Z,10.03
2019-02-24T22:16:17.493Z,10.53
2019-02-24T22:18:44.418Z,12.17
2019-02-24T22:21:11.341Z,11.60
2019-02-24T22:23:38.292Z,11.47
2019-02-24T22:26:05.230Z,10.40
2019-02-24T22:28:32.182Z,11.70
2019-02-24T22:30:59.089Z,9.83
2019-02-24T22:33:26.003Z,9.90
2019-02-24T22:35:52.908Z,9.13
2019-02-24T22:38:19.832Z,9.30
2019-02-24T22:40:54.148Z,9.90
2019-02-24T22:43:15.604Z,9.70
2019-02-24T22:45:42.557Z,10.40
2019-02-24T22:48:09.484Z,9.90
2019-02-24T22:50:36.380Z,9.70
2019-02-24T22:53:03.323Z,9.57
2019-02-24T22:55:30.216Z,10.83
2019-02-24T22:57:57.176Z,11.03
2019-02-24T23:00:52.336Z,10.60
2019-02-24T23:03:19.265Z,10.07
2019-02-24T23:05:46.147Z,10.40
2019-02-24T23:08:13.098Z,10.67
2019-02-24T23:10:40.067Z,9.43
2019-02-24T23:13:07.166Z,9.43
2019-02-24T23:15:34.055Z,9.13
2019-02-24T23:18:01.059Z,9.73
2019-02-24T23:20:28.004Z,9.17
2019-02-24T23:22:54.924Z,9.90
2019-02-24T23:25:21.816Z,8.97
2019-02-24T23:27:48.772Z,9.90
2019-02-24T23:30:15.659Z,10.10
2019-02-24T23:32:42.603Z,10.50
2019-02-24T23:35:09.481Z,10.30
2019-02-24T23:37:36.458Z,10.17
2019-02-24T23:40:03.893Z,9.70
2019-02-24T23:42:30.834Z,11.30
2019-02-24T23:44:57.873Z,10.17
2019-02-24T23:47:24.900Z,12.47
2019-02-24T23:49:51.835Z,11.33
2019-02-24T23:52:18.823Z,10.70
2019-02-24T23:54:45.803Z,9.40
2019-02-24T23:57:12.680Z,11.53
2019-02-24T23:59:39.584Z,11.07
